Time;durP1;ratioP1;P1;durP2;ratioP2;P2;SDS_P1;SDS_P2;PMS_P1;PMS_P2;Temp;Humidity;BMP_temperature;BMP_pressure;BME280_temperature;BME280_humidity;BME280_pressure;Samples;Min_cycle;Max_cycle;Signal;HPM_P1;HPM_P2
2023/09/03 00:01:19;;;;;;;7.75;6.95;;;;;;;;;;6216498;23;20153;-95
2023/09/03 00:03:47;;;;;;;10.10;9.10;;;;;;;;;;6216565;23;20166;-95
2023/09/03 00:06:15;;;;;;;9.93;8.93;;;;;;;;;;6216325;23;20178;-95
2023/09/03 00:08:45;;;;;;;10.98;9.88;;;;;;;;;;6216421;23;20163;-96
2023/09/03 00:11:14;;;;;;;10.15;9.15;;;;;;;;;;6216317;23;20143;-96
2023/09/03 00:13:42;;;;;;;10.10;8.95;;;;;;;;;;6216227;23;20218;-96
2023/09/03 00:16:11;;;;;;;9.15;8.35;;;;;;;;;;6216358;23;20209;-95
2023/09/03 00:18:40;;;;;;;9.40;8.48;;;;;;;;;;6216515;23;20231;-96
2023/09/03 00:21:12;;;;;;;10.45;8.63;;;;;;;;;;6216383;23;20186;-95
2023/09/03 00:23:40;;;;;;;8.60;7.80;;;;;;;;;;6216002;23;20191;-95
2023/09/03 00:26:08;;;;;;;7.40;6.65;;;;;;;;;;6216090;23;20151;-95
2023/09/03 00:28:36;;;;;;;8.93;8.02;;;;;;;;;;6216082;23;20154;-95
2023/09/03 00:31:07;;;;;;;9.95;7.88;;;;;;;;;;6216111;23;20170;-95
2023/09/03 00:33:36;;;;;;;8.77;7.53;;;;;;;;;;6216012;23;20154;-96
2023/09/03 00:36:08;;;;;;;10.02;8.43;;;;;;;;;;6216256;23;20153;-95
2023/09/03 00:38:37;;;;;;;10.48;9.45;;;;;;;;;;6216235;23;20162;-96
2023/09/03 00:41:05;;;;;;;8.95;8.05;;;;;;;;;;6216175;23;20147;-95
2023/09/03 00:43:34;;;;;;;9.30;7.70;;;;;;;;;;6216041;23;20143;-95
2023/09/03 00:46:05;;;;;;;8.77;7.88;;;;;;;;;;6216604;23;20169;-96
2023/09/03 00:48:37;;;;;;;9.23;8.40;;;;;;;;;;6216229;23;20143;-96
2023/09/03 00:51:10;;;;;;;8.90;8.05;;;;;;;;;;6215989;23;20147;-96
2023/09/03 00:53:43;;;;;;;7.55;6.85;;;;;;;;;;6215746;23;20170;-96
2023/09/03 00:56:13;;;;;;;8.88;8.02;;;;;;;;;;6216043;23;20146;-96
2023/09/03 00:58:41;;;;;;;8.88;8.13;;;;;;;;;;6215868;23;20178;-96
2023/09/03 01:01:12;;;;;;;9.18;8.15;;;;;;;;;;6215930;23;20182;-96
2023/09/03 01:03:43;;;;;;;10.27;9.27;;;;;;;;;;6215800;23;20151;-96
2023/09/03 01:06:13;;;;;;;9.50;8.43;;;;;;;;;;6215558;23;20170;-96
2023/09/03 01:08:42;;;;;;;6.30;5.70;;;;;;;;;;6215916;23;20264;-95
2023/09/03 01:11:25;;;;;;;4.10;3.70;;;;;;;;;;6215875;23;20146;-96
2023/09/03 01:14:01;;;;;;;2.97;2.60;;;;;;;;;;6215853;23;20173;-95
2023/09/03 01:16:44;;;;;;;3.42;3.13;;;;;;;;;;6215809;23;20160;-94
2023/09/03 01:19:51;;;;;;;3.95;3.65;;;;;;;;;;6216111;23;20159;-95
2023/09/03 01:22:58;;;;;;;4.15;3.03;;;;;;;;;;6215552;23;20207;-95
2023/09/03 01:26:00;;;;;;;4.75;4.20;;;;;;;;;;6213282;23;20199;-95
2023/09/03 01:28:33;;;;;;;5.55;4.57;;;;;;;;;;6215016;23;20203;-96
2023/09/03 01:31:05;;;;;;;4.65;4.25;;;;;;;;;;6215609;23;20202;-95
2023/09/03 01:33:38;;;;;;;6.40;5.80;;;;;;;;;;6215349;23;20159;-96
2023/09/03 01:36:09;;;;;;;8.05;7.35;;;;;;;;;;6215542;23;20169;-96
2023/09/03 01:38:38;;;;;;;10.80;8.95;;;;;;;;;;6215624;23;20270;-95
2023/09/03 01:41:06;;;;;;;8.23;7.43;;;;;;;;;;6215483;23;20150;-96
2023/09/03 01:43:36;;;;;;;8.45;7.65;;;;;;;;;;6215460;23;20146;-96
2023/09/03 01:46:08;;;;;;;8.98;7.88;;;;;;;;;;6215342;23;20170;-95
2023/09/03 01:48:55;;;;;;;8.50;7.60;;;;;;;;;;6215603;23;20166;-95
2023/09/03 01:51:33;;;;;;;9.60;8.77;;;;;;;;;;6215000;23;20179;-96
2023/09/03 01:54:08;;;;;;;9.82;7.38;;;;;;;;;;6214549;23;20150;-96
2023/09/03 01:56:42;;;;;;;9.82;8.85;;;;;;;;;;6215623;23;20146;-95
2023/09/03 01:59:19;;;;;;;10.02;9.00;;;;;;;;;;6215302;23;20165;-96
2023/09/03 02:01:51;;;;;;;8.68;7.88;;;;;;;;;;6215193;23;20146;-95
2023/09/03 02:04:20;;;;;;;11.00;9.80;;;;;;;;;;6214728;23;20153;-95
2023/09/03 02:06:48;;;;;;;10.63;9.57;;;;;;;;;;6215209;23;20151;-96
2023/09/03 02:09:16;;;;;;;11.98;10.73;;;;;;;;;;6215319;23;20143;-96
2023/09/03 02:11:44;;;;;;;10.85;9.75;;;;;;;;;;6214987;23;20161;-96
2023/09/03 02:14:14;;;;;;;11.52;10.38;;;;;;;;;;6214901;23;20147;-96
2023/09/03 02:16:42;;;;;;;10.27;9.27;;;;;;;;;;6214871;23;20147;-95
2023/09/03 02:19:10;;;;;;;11.90;10.80;;;;;;;;;;6214842;23;20166;-96
2023/09/03 02:21:38;;;;;;;11.13;10.13;;;;;;;;;;6214824;23;20166;-95
2023/09/03 02:24:06;;;;;;;10.57;9.50;;;;;;;;;;6214676;23;20150;-95
2023/09/03 02:26:36;;;;;;;9.90;8.90;;;;;;;;;;6214704;23;20151;-96
2023/09/03 02:29:04;;;;;;;11.07;10.07;;;;;;;;;;6214161;23;20147;-95
2023/09/03 02:31:33;;;;;;;9.88;8.93;;;;;;;;;;6214710;23;20162;-96
2023/09/03 02:34:00;;;;;;;8.93;8.02;;;;;;;;;;6214549;23;20178;-96
2023/09/03 02:36:29;;;;;;;10.48;9.48;;;;;;;;;;6214692;23;20157;-95
2023/09/03 02:39:01;;;;;;;12.65;11.45;;;;;;;;;;6214723;23;20170;-95
2023/09/03 02:41:30;;;;;;;12.45;11.35;;;;;;;;;;6214772;23;20154;-95
2023/09/03 02:43:58;;;;;;;12.20;10.88;;;;;;;;;;6214753;23;20158;-96
2023/09/03 02:46:26;;;;;;;13.07;11.90;;;;;;;;;;6214667;23;20161;-96
2023/09/03 02:48:55;;;;;;;12.30;11.20;;;;;;;;;;6214586;23;20174;-95
2023/09/03 02:51:23;;;;;;;11.50;10.25;;;;;;;;;;6214621;23;20153;-96
2023/09/03 02:53:54;;;;;;;13.30;11.55;;;;;;;;;;6214386;23;20146;-96
2023/09/03 02:56:23;;;;;;;13.43;12.07;;;;;;;;;;6214489;23;20147;-96
2023/09/03 02:58:51;;;;;;;13.38;12.07;;;;;;;;;;6214373;23;20206;-95
2023/09/03 03:01:21;;;;;;;11.27;10.23;;;;;;;;;;6214579;23;20170;-95
2023/09/03 03:03:49;;;;;;;12.38;10.82;;;;;;;;;;6214393;23;20151;-96
2023/09/03 03:06:19;;;;;;;10.52;9.63;;;;;;;;;;6214401;23;20155;-96
2023/09/03 03:08:47;;;;;;;11.55;10.43;;;;;;;;;;6214470;23;20146;-96
2023/09/03 03:11:17;;;;;;;13.93;12.52;;;;;;;;;;6214517;23;20154;-95
2023/09/03 03:13:46;;;;;;;10.82;9.82;;;;;;;;;;6214271;23;20158;-96
2023/09/03 03:16:16;;;;;;;12.15;10.98;;;;;;;;;;6214518;23;20151;-96
2023/09/03 03:18:46;;;;;;;11.75;10.73;;;;;;;;;;6214262;23;20147;-95
2023/09/03 03:21:16;;;;;;;11.25;10.07;;;;;;;;;;6214409;23;20158;-95
2023/09/03 03:23:49;;;;;;;11.73;10.52;;;;;;;;;;6214093;23;20154;-95
2023/09/03 03:26:18;;;;;;;12.30;10.75;;;;;;;;;;6214340;23;20161;-96
2023/09/03 03:28:46;;;;;;;11.02;9.98;;;;;;;;;;6214322;23;20147;-96
2023/09/03 03:31:15;;;;;;;11.15;10.02;;;;;;;;;;6214306;23;20150;-95
2023/09/03 03:33:44;;;;;;;10.77;9.55;;;;;;;;;;6214099;23;20166;-96
2023/09/03 03:36:14;;;;;;;10.88;9.88;;;;;;;;;;6214304;23;20147;-95
2023/09/03 03:38:42;;;;;;;10.40;9.40;;;;;;;;;;6214238;23;20147;-95
2023/09/03 03:41:12;;;;;;;12.90;11.75;;;;;;;;;;6214294;23;20158;-95
2023/09/03 03:43:41;;;;;;;10.50;9.60;;;;;;;;;;6214108;23;20146;-95
2023/09/03 03:46:11;;;;;;;11.63;10.52;;;;;;;;;;6214243;23;20150;-95
2023/09/03 03:48:38;;;;;;;11.88;10.73;;;;;;;;;;6214277;23;20147;-96
2023/09/03 03:51:06;;;;;;;12.57;11.27;;;;;;;;;;6212879;23;20146;-94
2023/09/03 03:53:34;;;;;;;13.02;11.77;;;;;;;;;;6213334;23;20169;-96
2023/09/03 03:56:03;;;;;;;13.73;12.15;;;;;;;;;;6212892;23;20146;-95
2023/09/03 03:58:34;;;;;;;12.05;10.88;;;;;;;;;;6213394;23;20166;-96
2023/09/03 04:01:11;;;;;;;13.88;12.20;;;;;;;;;;6213534;23;20203;-96
2023/09/03 04:03:38;;;;;;;10.18;9.18;;;;;;;;;;6213536;23;20173;-95
2023/09/03 04:06:06;;;;;;;11.13;10.07;;;;;;;;;;6213688;23;20154;-94
2023/09/03 04:08:36;;;;;;;9.48;8.57;;;;;;;;;;6213830;23;20143;-96
2023/09/03 04:11:06;;;;;;;10.90;9.90;;;;;;;;;;6213287;23;20143;-95
2023/09/03 04:13:35;;;;;;;8.95;8.05;;;;;;;;;;6213421;23;20157;-95
2023/09/03 04:16:09;;;;;;;11.07;10.07;;;;;;;;;;6212961;23;20162;-96
2023/09/03 04:18:37;;;;;;;9.07;8.23;;;;;;;;;;6213327;23;20151;-96
2023/09/03 04:21:05;;;;;;;8.73;7.88;;;;;;;;;;6213765;23;20162;-95
2023/09/03 04:23:33;;;;;;;11.63;10.50;;;;;;;;;;6213516;23;20166;-95
2023/09/03 04:26:01;;;;;;;10.73;9.70;;;;;;;;;;6213371;23;20169;-96
2023/09/03 04:28:28;;;;;;;11.65;10.45;;;;;;;;;;6215149;23;20147;-95
2023/09/03 04:31:00;;;;;;;12.27;11.18;;;;;;;;;;6215007;23;20143;-96
2023/09/03 04:33:28;;;;;;;12.38;11.27;;;;;;;;;;6215181;23;20169;-96
2023/09/03 04:35:57;;;;;;;12.77;11.30;;;;;;;;;;6214914;23;20147;-95
2023/09/03 04:38:25;;;;;;;13.85;12.43;;;;;;;;;;6215505;23;20151;-95
2023/09/03 04:40:53;;;;;;;11.70;10.57;;;;;;;;;;6214573;23;20166;-96
2023/09/03 04:43:21;;;;;;;13.48;12.13;;;;;;;;;;6215006;23;20147;-96
2023/09/03 04:45:50;;;;;;;15.20;13.00;;;;;;;;;;6214997;23;20147;-95
2023/09/03 04:48:20;;;;;;;14.20;12.80;;;;;;;;;;6216136;23;20338;-96
2023/09/03 04:50:48;;;;;;;11.18;10.13;;;;;;;;;;6215122;23;20157;-96
2023/09/03 04:53:16;;;;;;;14.35;13.00;;;;;;;;;;6214695;23;20147;-95
2023/09/03 04:55:43;;;;;;;13.43;12.13;;;;;;;;;;6215248;23;20147;-96
2023/09/03 04:58:11;;;;;;;9.70;8.80;;;;;;;;;;6215067;23;20158;-96
2023/09/03 05:00:39;;;;;;;10.55;9.60;;;;;;;;;;6214794;23;20173;-95
2023/09/03 05:03:07;;;;;;;10.82;9.90;;;;;;;;;;6214724;23;20157;-94
2023/09/03 05:05:41;;;;;;;16.40;14.90;;;;;;;;;;6215062;23;20155;-95
2023/09/03 05:08:09;;;;;;;13.02;11.80;;;;;;;;;;6215746;23;20146;-95
2023/09/03 05:10:38;;;;;;;13.45;12.15;;;;;;;;;;6214183;23;20143;-95
2023/09/03 05:13:06;;;;;;;14.35;12.95;;;;;;;;;;6214475;23;20147;-95
2023/09/03 05:15:34;;;;;;;12.18;11.07;;;;;;;;;;6214697;23;20160;-95
2023/09/03 05:18:01;;;;;;;14.88;13.48;;;;;;;;;;6215082;23;20194;-95
2023/09/03 05:20:29;;;;;;;12.63;11.32;;;;;;;;;;6214629;23;20158;-95
2023/09/03 05:22:58;;;;;;;11.13;10.07;;;;;;;;;;6214888;23;20161;-96
2023/09/03 05:25:26;;;;;;;12.30;11.05;;;;;;;;;;6214702;23;20147;-95
2023/09/03 05:27:53;;;;;;;14.27;12.85;;;;;;;;;;6215005;23;20240;-96
2023/09/03 05:30:22;;;;;;;10.23;9.23;;;;;;;;;;6214168;23;20151;-96
2023/09/03 05:32:50;;;;;;;10.93;9.90;;;;;;;;;;6215073;23;20154;-95
2023/09/03 05:35:18;;;;;;;8.65;7.85;;;;;;;;;;6214838;23;20150;-96
2023/09/03 05:37:46;;;;;;;11.40;10.20;;;;;;;;;;6215213;23;20150;-95
2023/09/03 05:40:15;;;;;;;11.75;10.32;;;;;;;;;;6213814;23;20147;-95
2023/09/03 05:42:43;;;;;;;12.60;11.32;;;;;;;;;;6214655;23;20166;-96
2023/09/03 05:45:11;;;;;;;10.10;9.10;;;;;;;;;;6214364;23;20158;-96
2023/09/03 05:47:39;;;;;;;11.02;10.02;;;;;;;;;;6214781;23;20147;-96
2023/09/03 05:50:08;;;;;;;12.25;11.07;;;;;;;;;;6214223;23;20158;-96
2023/09/03 05:52:36;;;;;;;12.30;11.10;;;;;;;;;;6215221;23;20155;-95
2023/09/03 05:55:04;;;;;;;10.52;9.63;;;;;;;;;;6215035;23;20158;-96
2023/09/03 05:57:33;;;;;;;11.70;10.60;;;;;;;;;;6215099;23;20154;-96
2023/09/03 06:00:01;;;;;;;13.05;11.32;;;;;;;;;;6215167;23;20158;-95
2023/09/03 06:02:29;;;;;;;11.57;10.48;;;;;;;;;;6215084;23;20170;-96
2023/09/03 06:04:56;;;;;;;11.52;10.48;;;;;;;;;;6214912;23;20153;-96
2023/09/03 06:07:24;;;;;;;12.45;11.18;;;;;;;;;;6214847;23;20172;-96
2023/09/03 06:09:52;;;;;;;15.95;10.45;;;;;;;;;;6215003;23;20147;-95
2023/09/03 06:12:19;;;;;;;11.85;10.75;;;;;;;;;;6214995;23;20146;-95
2023/09/03 06:14:48;;;;;;;11.98;10.88;;;;;;;;;;6214699;23;20147;-96
2023/09/03 06:17:16;;;;;;;12.60;10.93;;;;;;;;;;6214919;23;20169;-95
2023/09/03 06:19:48;;;;;;;11.50;10.40;;;;;;;;;;6214958;23;20155;-96
2023/09/03 06:22:16;;;;;;;12.02;10.82;;;;;;;;;;6214757;23;20210;-95
2023/09/03 06:24:44;;;;;;;11.52;9.65;;;;;;;;;;6214798;23;20158;-95
2023/09/03 06:27:11;;;;;;;11.30;10.27;;;;;;;;;;6215055;23;20154;-96
2023/09/03 06:29:39;;;;;;;10.57;9.57;;;;;;;;;;6214937;23;20154;-95
2023/09/03 06:32:08;;;;;;;10.30;9.30;;;;;;;;;;6214762;23;20143;-95
2023/09/03 06:34:36;;;;;;;9.85;8.90;;;;;;;;;;6214652;23;20206;-96
2023/09/03 06:37:04;;;;;;;9.85;8.95;;;;;;;;;;6214577;23;20159;-95
2023/09/03 06:39:32;;;;;;;8.73;7.97;;;;;;;;;;6214619;23;20151;-96
2023/09/03 06:41:59;;;;;;;10.05;8.93;;;;;;;;;;6214477;23;20170;-96
2023/09/03 06:44:27;;;;;;;8.73;7.85;;;;;;;;;;6214700;23;20166;-96
2023/09/03 06:46:55;;;;;;;11.25;9.85;;;;;;;;;;6214629;23;20162;-95
2023/09/03 06:49:24;;;;;;;8.80;7.95;;;;;;;;;;6214610;23;20169;-96
2023/09/03 06:51:52;;;;;;;9.10;7.95;;;;;;;;;;6214480;23;20146;-96
2023/09/03 06:54:20;;;;;;;9.85;8.85;;;;;;;;;;6214459;23;20151;-96
2023/09/03 06:56:47;;;;;;;7.35;6.68;;;;;;;;;;6214405;23;20143;-96
2023/09/03 06:59:15;;;;;;;7.47;6.88;;;;;;;;;;6214662;23;20170;-96
2023/09/03 07:01:43;;;;;;;12.13;8.45;;;;;;;;;;6214523;23;20158;-95
2023/09/03 07:04:11;;;;;;;8.95;8.15;;;;;;;;;;6214338;23;20147;-96
2023/09/03 07:06:40;;;;;;;10.00;9.07;;;;;;;;;;6214520;23;20158;-96
2023/09/03 07:09:08;;;;;;;8.52;7.30;;;;;;;;;;6214520;23;20157;-95
2023/09/03 07:11:36;;;;;;;5.90;5.40;;;;;;;;;;6214497;23;20143;-96
2023/09/03 07:14:03;;;;;;;8.43;7.63;;;;;;;;;;6214319;23;20147;-96
2023/09/03 07:16:32;;;;;;;11.13;9.10;;;;;;;;;;6214402;23;20146;-96
2023/09/03 07:19:00;;;;;;;6.00;5.55;;;;;;;;;;6214449;23;20166;-96
2023/09/03 07:21:28;;;;;;;7.57;6.95;;;;;;;;;;6214770;23;20146;-95
2023/09/03 07:23:57;;;;;;;7.68;7.05;;;;;;;;;;6214259;23;20154;-96
2023/09/03 07:26:25;;;;;;;9.05;8.15;;;;;;;;;;6214375;23;20155;-95
2023/09/03 07:28:52;;;;;;;8.00;7.30;;;;;;;;;;6214377;23;20150;-96
2023/09/03 07:31:20;;;;;;;5.53;5.07;;;;;;;;;;6214236;23;20151;-95
2023/09/03 07:33:49;;;;;;;6.90;6.30;;;;;;;;;;6214003;23;20150;-95
2023/09/03 07:36:17;;;;;;;8.32;7.47;;;;;;;;;;6214304;23;20151;-95
2023/09/03 07:38:44;;;;;;;8.65;7.85;;;;;;;;;;6214216;23;20150;-96
2023/09/03 07:41:14;;;;;;;8.10;7.40;;;;;;;;;;6214196;23;20262;-96
2023/09/03 07:43:42;;;;;;;9.35;8.50;;;;;;;;;;6214074;23;20165;-95
2023/09/03 07:46:11;;;;;;;6.80;6.20;;;;;;;;;;6214262;23;20146;-96
2023/09/03 07:48:38;;;;;;;4.97;4.57;;;;;;;;;;6214264;23;20150;-95
2023/09/03 07:51:06;;;;;;;4.22;3.83;;;;;;;;;;6214230;23;20147;-96
2023/09/03 07:53:34;;;;;;;10.25;7.30;;;;;;;;;;6213335;23;20143;-96
2023/09/03 07:56:02;;;;;;;6.80;6.15;;;;;;;;;;6213110;23;20147;-96
2023/09/03 07:58:34;;;;;;;8.07;7.35;;;;;;;;;;6214237;23;20154;-95
2023/09/03 08:01:02;;;;;;;8.35;7.65;;;;;;;;;;6214215;23;20146;-96
2023/09/03 08:03:34;;;;;;;7.97;7.32;;;;;;;;;;6215585;23;20169;-96
2023/09/03 08:06:03;;;;;;;7.28;6.68;;;;;;;;;;6216221;23;20147;-94
2023/09/03 08:08:31;;;;;;;6.10;5.60;;;;;;;;;;6216176;23;20170;-96
2023/09/03 08:10:59;;;;;;;7.18;6.55;;;;;;;;;;6216057;23;20151;-96
2023/09/03 08:13:27;;;;;;;7.05;6.35;;;;;;;;;;6215956;23;20149;-95
2023/09/03 08:15:56;;;;;;;6.30;5.68;;;;;;;;;;6216095;23;20147;-96
2023/09/03 08:18:24;;;;;;;6.63;6.00;;;;;;;;;;6216109;23;20147;-96
2023/09/03 08:20:53;;;;;;;4.95;4.55;;;;;;;;;;6216290;23;20162;-96
2023/09/03 08:23:21;;;;;;;5.47;4.97;;;;;;;;;;6215775;23;20158;-95
2023/09/03 08:25:49;;;;;;;6.72;6.13;;;;;;;;;;6215890;23;20146;-96
2023/09/03 08:28:17;;;;;;;4.55;4.15;;;;;;;;;;6215978;23;20159;-96
2023/09/03 08:30:44;;;;;;;7.25;4.68;;;;;;;;;;6215974;23;20147;-96
2023/09/03 08:33:14;;;;;;;4.50;4.10;;;;;;;;;;6215642;23;20162;-96
2023/09/03 08:35:41;;;;;;;5.13;4.63;;;;;;;;;;6215867;23;20158;-96
2023/09/03 08:38:10;;;;;;;5.35;4.85;;;;;;;;;;6215832;23;20158;-96
2023/09/03 08:40:40;;;;;;;4.13;3.72;;;;;;;;;;6216003;23;20147;-95
2023/09/03 08:43:09;;;;;;;3.03;2.83;;;;;;;;;;6215728;23;20181;-96
2023/09/03 08:45:42;;;;;;;3.65;3.35;;;;;;;;;;6215732;23;20166;-95
2023/09/03 08:48:09;;;;;;;3.42;3.00;;;;;;;;;;6215830;23;20151;-96
2023/09/03 08:50:39;;;;;;;4.38;3.33;;;;;;;;;;6215814;23;20143;-96
2023/09/03 08:53:07;;;;;;;4.10;3.53;;;;;;;;;;6215586;23;20182;-96
2023/09/03 08:55:36;;;;;;;3.45;3.10;;;;;;;;;;6215509;23;20147;-95
2023/09/03 08:58:05;;;;;;;4.22;3.25;;;;;;;;;;6215750;23;20151;-96
2023/09/03 09:00:33;;;;;;;4.45;4.05;;;;;;;;;;6215830;23;20170;-96
2023/09/03 09:03:02;;;;;;;4.22;3.83;;;;;;;;;;6215477;23;20159;-94
2023/09/03 09:05:30;;;;;;;2.47;2.28;;;;;;;;;;6215537;23;20151;-96
2023/09/03 09:07:59;;;;;;;4.00;3.50;;;;;;;;;;6215573;23;20146;-95
2023/09/03 09:10:37;;;;;;;3.50;3.20;;;;;;;;;;6215673;23;20147;-95
2023/09/03 09:13:07;;;;;;;4.28;3.13;;;;;;;;;;6215339;23;20157;-96
2023/09/03 09:15:37;;;;;;;5.68;5.03;;;;;;;;;;6215495;23;20147;-96
2023/09/03 09:18:09;;;;;;;5.07;4.68;;;;;;;;;;6215555;23;20150;-96
2023/09/03 09:20:39;;;;;;;3.40;3.17;;;;;;;;;;6215614;23;20422;-96
2023/09/03 09:23:09;;;;;;;3.55;3.28;;;;;;;;;;6215079;23;20182;-96
2023/09/03 09:25:37;;;;;;;2.65;2.45;;;;;;;;;;6215377;23;20151;-95
2023/09/03 09:28:15;;;;;;;3.25;2.97;;;;;;;;;;6215442;23;20199;-96
2023/09/03 09:30:56;;;;;;;5.07;4.53;;;;;;;;;;6215486;23;20154;-96
2023/09/03 09:33:27;;;;;;;4.45;3.75;;;;;;;;;;6214999;23;20189;-95
2023/09/03 09:35:55;;;;;;;3.90;3.60;;;;;;;;;;6215347;23;20162;-95
2023/09/03 09:38:35;;;;;;;4.47;4.07;;;;;;;;;;6215356;23;20157;-96
2023/09/03 09:41:22;;;;;;;3.60;3.30;;;;;;;;;;6216034;23;20147;-95
2023/09/03 09:43:51;;;;;;;4.82;4.43;;;;;;;;;;6214999;23;20161;-95
2023/09/03 09:46:29;;;;;;;4.32;3.95;;;;;;;;;;6215149;23;20152;-96
2023/09/03 09:48:58;;;;;;;3.67;3.38;;;;;;;;;;6215348;23;20178;-96
2023/09/03 09:51:28;;;;;;;3.45;3.15;;;;;;;;;;6215271;23;20143;-96
2023/09/03 09:53:59;;;;;;;4.40;4.00;;;;;;;;;;6215214;23;20143;-96
2023/09/03 09:56:31;;;;;;;2.60;2.40;;;;;;;;;;6214919;23;20170;-96
2023/09/03 09:58:59;;;;;;;3.80;3.33;;;;;;;;;;6215080;23;20151;-96
2023/09/03 10:01:44;;;;;;;2.88;2.67;;;;;;;;;;6215188;23;20158;-95
2023/09/03 10:04:12;;;;;;;2.20;2.10;;;;;;;;;;6215040;23;20158;-96
2023/09/03 10:06:40;;;;;;;3.63;3.42;;;;;;;;;;6214967;23;20142;-95
2023/09/03 10:09:10;;;;;;;6.30;4.47;;;;;;;;;;6215162;23;20147;-96
2023/09/03 10:11:38;;;;;;;2.33;2.13;;;;;;;;;;6215309;23;20153;-96
2023/09/03 10:14:06;;;;;;;2.80;2.60;;;;;;;;;;6215219;23;20166;-96
2023/09/03 10:16:34;;;;;;;3.95;3.60;;;;;;;;;;6214846;23;20147;-96
2023/09/03 10:19:04;;;;;;;3.10;2.90;;;;;;;;;;6214969;23;20146;-95
2023/09/03 10:21:32;;;;;;;4.28;3.88;;;;;;;;;;6215039;23;20147;-95
2023/09/03 10:24:03;;;;;;;2.78;2.50;;;;;;;;;;6214609;23;20159;-96
2023/09/03 10:26:47;;;;;;;3.15;2.75;;;;;;;;;;6214436;23;20147;-96
2023/09/03 10:29:19;;;;;;;3.78;3.30;;;;;;;;;;6214891;23;20153;-95
2023/09/03 10:31:48;;;;;;;3.08;2.88;;;;;;;;;;6214783;23;20153;-95
2023/09/03 10:34:16;;;;;;;3.95;3.03;;;;;;;;;;6214529;23;20162;-95
2023/09/03 10:37:06;;;;;;;5.93;3.78;;;;;;;;;;6214780;23;20151;-96
2023/09/03 10:39:33;;;;;;;3.70;3.17;;;;;;;;;;6214818;23;20151;-96
2023/09/03 10:42:31;;;;;;;4.20;3.78;;;;;;;;;;6214546;23;20147;-96
2023/09/03 10:45:00;;;;;;;3.28;3.08;;;;;;;;;;6214581;23;20166;-96
2023/09/03 10:47:28;;;;;;;2.55;2.35;;;;;;;;;;6214615;23;20159;-96
2023/09/03 10:49:56;;;;;;;2.10;2.00;;;;;;;;;;6214701;23;20150;-96
2023/09/03 10:52:40;;;;;;;2.92;2.72;;;;;;;;;;6214593;23;20154;-96
2023/09/03 10:55:19;;;;;;;2.35;2.25;;;;;;;;;;6214534;23;20154;-95
2023/09/03 10:57:49;;;;;;;2.08;1.90;;;;;;;;;;6214763;23;20147;-95
2023/09/03 11:00:21;;;;;;;3.03;2.72;;;;;;;;;;6214819;23;20190;-96
2023/09/03 11:02:49;;;;;;;3.30;3.00;;;;;;;;;;6214555;23;20154;-95
2023/09/03 11:05:20;;;;;;;3.33;3.13;;;;;;;;;;6214362;23;20165;-96
2023/09/03 11:07:49;;;;;;;3.63;3.33;;;;;;;;;;6214782;23;20158;-95
2023/09/03 11:10:43;;;;;;;2.60;2.40;;;;;;;;;;6214627;23;20154;-95
2023/09/03 11:13:13;;;;;;;3.35;2.88;;;;;;;;;;6214268;23;20202;-95
2023/09/03 11:15:55;;;;;;;3.03;2.70;;;;;;;;;;6214308;23;20194;-96
2023/09/03 11:18:25;;;;;;;2.45;2.35;;;;;;;;;;6214473;23;20203;-95
2023/09/03 11:20:54;;;;;;;2.97;2.78;;;;;;;;;;6214544;23;20154;-95
2023/09/03 11:23:22;;;;;;;2.40;2.20;;;;;;;;;;6214525;23;20147;-95
2023/09/03 11:25:49;;;;;;;2.33;2.00;;;;;;;;;;6214062;23;20174;-96
2023/09/03 11:28:18;;;;;;;2.75;2.55;;;;;;;;;;6214350;23;20147;-96
2023/09/03 11:30:47;;;;;;;1.80;1.67;;;;;;;;;;6214401;23;20158;-95
2023/09/03 11:33:25;;;;;;;1.80;1.50;;;;;;;;;;6214014;23;20161;-95
2023/09/03 11:35:54;;;;;;;2.50;2.40;;;;;;;;;;6214170;23;20161;-96
2023/09/03 11:38:25;;;;;;;2.47;2.30;;;;;;;;;;6214317;23;20166;-96
2023/09/03 11:40:58;;;;;;;2.53;2.33;;;;;;;;;;6214369;23;20143;-95
2023/09/03 11:43:29;;;;;;;2.20;2.00;;;;;;;;;;6214026;23;20151;-95
2023/09/03 11:45:57;;;;;;;2.25;2.15;;;;;;;;;;6214134;23;20174;-95
2023/09/03 11:48:26;;;;;;;2.20;2.00;;;;;;;;;;6214305;23;20146;-96
2023/09/03 11:50:53;;;;;;;1.77;1.67;;;;;;;;;;6214156;23;20147;-96
2023/09/03 11:53:22;;;;;;;3.28;2.97;;;;;;;;;;6213929;23;20146;-95
2023/09/03 11:55:54;;;;;;;2.75;2.55;;;;;;;;;;6214057;23;20151;-95
2023/09/03 11:58:27;;;;;;;2.55;2.35;;;;;;;;;;6214255;23;20206;-96
2023/09/03 12:00:55;;;;;;;2.20;2.00;;;;;;;;;;6214246;23;20158;-96
2023/09/03 12:03:23;;;;;;;1.80;1.70;;;;;;;;;;6213823;23;20151;-95
2023/09/03 12:05:51;;;;;;;2.25;2.05;;;;;;;;;;6214394;23;20178;-96
2023/09/03 12:08:19;;;;;;;2.55;2.35;;;;;;;;;;6213909;23;20162;-96
2023/09/03 12:10:49;;;;;;;2.38;2.17;;;;;;;;;;6214135;23;20214;-96
2023/09/03 12:13:32;;;;;;;1.63;1.52;;;;;;;;;;6213972;23;20151;-96
2023/09/03 12:16:06;;;;;;;2.40;2.22;;;;;;;;;;6214200;23;20198;-95
2023/09/03 12:18:33;;;;;;;2.45;2.22;;;;;;;;;;6214222;23;20162;-96
2023/09/03 12:21:01;;;;;;;2.03;1.92;;;;;;;;;;6214064;23;20158;-96
2023/09/03 12:23:29;;;;;;;1.73;1.63;;;;;;;;;;6213950;23;20150;-96
2023/09/03 12:25:57;;;;;;;2.13;2.03;;;;;;;;;;6213869;23;20179;-96
2023/09/03 12:28:37;;;;;;;2.42;2.22;;;;;;;;;;6214094;23;20428;-95
2023/09/03 12:31:06;;;;;;;2.17;1.92;;;;;;;;;;6214131;23;20157;-96
2023/09/03 12:33:49;;;;;;;2.53;2.33;;;;;;;;;;6213829;23;20154;-96
2023/09/03 12:36:18;;;;;;;2.42;2.22;;;;;;;;;;6214000;23;20147;-96
2023/09/03 12:38:56;;;;;;;3.47;2.17;;;;;;;;;;6214087;23;20207;-96
2023/09/03 12:41:26;;;;;;;2.15;1.92;;;;;;;;;;6214053;23;20146;-95
2023/09/03 12:43:57;;;;;;;1.90;1.80;;;;;;;;;;6213924;23;20147;-96
2023/09/03 12:46:25;;;;;;;3.55;2.30;;;;;;;;;;6213846;23;20175;-96
2023/09/03 12:48:53;;;;;;;1.83;1.60;;;;;;;;;;6215103;23;20158;-96
2023/09/03 12:51:21;;;;;;;1.35;1.30;;;;;;;;;;6215793;23;20154;-96
2023/09/03 12:53:49;;;;;;;2.13;2.03;;;;;;;;;;6215535;23;20168;-95
2023/09/03 12:56:17;;;;;;;1.88;1.77;;;;;;;;;;6215472;23;20150;-96
2023/09/03 12:58:47;;;;;;;1.63;1.42;;;;;;;;;;6216058;23;20146;-96
2023/09/03 13:01:17;;;;;;;1.92;1.83;;;;;;;;;;6216051;23;20163;-96
2023/09/03 13:03:45;;;;;;;1.52;1.42;;;;;;;;;;6215540;23;20147;-96
2023/09/03 13:06:13;;;;;;;1.55;1.45;;;;;;;;;;6215642;23;20186;-96
2023/09/03 13:08:43;;;;;;;2.00;1.80;;;;;;;;;;6215703;23;20324;-96
2023/09/03 13:11:11;;;;;;;2.15;1.95;;;;;;;;;;6215682;23;20169;-95
2023/09/03 13:13:39;;;;;;;1.88;1.73;;;;;;;;;;6215353;23;20150;-95
2023/09/03 13:16:06;;;;;;;1.70;1.60;;;;;;;;;;6215523;23;20150;-94
2023/09/03 13:18:36;;;;;;;2.13;1.92;;;;;;;;;;6215543;23;20154;-95
2023/09/03 13:21:04;;;;;;;1.70;1.60;;;;;;;;;;6215524;23;20166;-96
2023/09/03 13:23:31;;;;;;;1.38;1.30;;;;;;;;;;6215624;23;20162;-95
2023/09/03 13:26:00;;;;;;;2.30;1.67;;;;;;;;;;6215340;23;20174;-96
2023/09/03 13:28:28;;;;;;;1.67;1.58;;;;;;;;;;6215561;23;20161;-96
2023/09/03 13:30:55;;;;;;;2.17;2.08;;;;;;;;;;6215267;23;20154;-95
2023/09/03 13:33:23;;;;;;;1.77;1.67;;;;;;;;;;6215082;23;20162;-95
2023/09/03 13:35:54;;;;;;;1.15;1.15;;;;;;;;;;6215413;23;20142;-95
2023/09/03 13:38:22;;;;;;;1.45;1.35;;;;;;;;;;6215492;23;20162;-96
2023/09/03 13:40:51;;;;;;;2.47;1.48;;;;;;;;;;6215561;23;20161;-95
2023/09/03 13:43:19;;;;;;;1.02;1.02;;;;;;;;;;6215226;23;20146;-96
2023/09/03 13:45:53;;;;;;;1.55;1.45;;;;;;;;;;6215172;23;20174;-95
2023/09/03 13:48:21;;;;;;;1.10;1.10;;;;;;;;;;6215309;23;20150;-95
2023/09/03 13:50:51;;;;;;;2.55;1.02;;;;;;;;;;6215215;23;20147;-96
2023/09/03 13:53:20;;;;;;;1.40;1.30;;;;;;;;;;6215134;23;20151;-94
2023/09/03 13:55:48;;;;;;;1.23;1.23;;;;;;;;;;6213567;23;20178;-96
2023/09/03 13:58:15;;;;;;;2.17;1.35;;;;;;;;;;6214955;23;20143;-95
2023/09/03 14:00:43;;;;;;;0.90;0.90;;;;;;;;;;6214433;23;20151;-95
2023/09/03 14:03:11;;;;;;;1.17;1.08;;;;;;;;;;6214894;23;20151;-96
2023/09/03 14:05:38;;;;;;;1.30;1.20;;;;;;;;;;6214893;23;20179;-94
2023/09/03 14:08:07;;;;;;;1.45;1.05;;;;;;;;;;6215026;23;20154;-95
2023/09/03 14:10:36;;;;;;;1.45;1.35;;;;;;;;;;6214980;23;20169;-95
2023/09/03 14:13:04;;;;;;;1.00;1.00;;;;;;;;;;6214894;23;20147;-95
2023/09/03 14:15:33;;;;;;;1.00;1.00;;;;;;;;;;6214833;23;20146;-96
2023/09/03 14:18:01;;;;;;;1.40;1.30;;;;;;;;;;6215040;23;20151;-95
2023/09/03 14:20:28;;;;;;;2.25;1.25;;;;;;;;;;6215016;23;20150;-96
2023/09/03 14:22:56;;;;;;;1.38;1.27;;;;;;;;;;6214850;23;20147;-95
2023/09/03 14:25:24;;;;;;;1.13;1.10;;;;;;;;;;6214759;23;20150;-95
2023/09/03 14:27:53;;;;;;;1.70;1.60;;;;;;;;;;6214747;23;20159;-96
2023/09/03 14:30:21;;;;;;;1.50;1.40;;;;;;;;;;6214935;23;20151;-96
2023/09/03 14:32:48;;;;;;;1.40;1.30;;;;;;;;;;6214558;23;20147;-95
2023/09/03 14:35:16;;;;;;;1.33;1.20;;;;;;;;;;6214642;23;20146;-94
2023/09/03 14:37:44;;;;;;;1.77;1.40;;;;;;;;;;6214746;23;20155;-94
2023/09/03 14:40:12;;;;;;;1.42;1.33;;;;;;;;;;6214843;23;20147;-94
2023/09/03 14:42:40;;;;;;;2.10;1.13;;;;;;;;;;6214628;23;20146;-95
2023/09/03 14:45:10;;;;;;;1.30;1.23;;;;;;;;;;6214479;23;20147;-94
2023/09/03 14:47:39;;;;;;;1.60;1.50;;;;;;;;;;6214565;23;20174;-95
2023/09/03 14:50:08;;;;;;;0.90;0.90;;;;;;;;;;6214612;23;20151;-94
2023/09/03 14:52:36;;;;;;;0.98;0.98;;;;;;;;;;6215041;23;20147;-95